Time;durP1;ratioP1;P1;durP2;ratioP2;P2;SDS_P1;SDS_P2;PMS_P1;PMS_P2;Temp;Humidity;BMP_temperature;BMP_pressure;BME280_temperature;BME280_humidity;BME280_pressure;Samples;Min_cycle;Max_cycle;Signal;HPM_P1;HPM_P2
2022/04/06 00:01:42;;;;;;;4.63;1.83;;;;;;;;;;5071904;28;20045;-66
2022/04/06 00:04:08;;;;;;;6.18;2.28;;;;;;;;;;5071686;28;20072;-65
2022/04/06 00:06:34;;;;;;;6.10;1.67;;;;;;;;;;5070669;28;20112;-65
2022/04/06 00:09:00;;;;;;;4.28;1.58;;;;;;;;;;5071512;28;20119;-65
2022/04/06 00:11:26;;;;;;;7.18;2.03;;;;;;;;;;5053580;28;20048;-66
2022/04/06 00:13:52;;;;;;;4.97;1.48;;;;;;;;;;5071358;28;20106;-65
2022/04/06 00:16:18;;;;;;;5.00;1.73;;;;;;;;;;5070678;28;20525;-66
2022/04/06 00:18:44;;;;;;;4.65;2.05;;;;;;;;;;5071520;28;20044;-66
2022/04/06 00:21:11;;;;;;;6.60;2.03;;;;;;;;;;5071423;28;20052;-67
2022/04/06 00:23:37;;;;;;;4.10;1.70;;;;;;;;;;5071408;28;20040;-66
2022/04/06 00:26:03;;;;;;;4.72;1.95;;;;;;;;;;5071269;28;20066;-66
2022/04/06 00:28:29;;;;;;;5.47;1.80;;;;;;;;;;5070747;28;20052;-66
2022/04/06 00:30:55;;;;;;;5.47;1.80;;;;;;;;;;5071164;28;20056;-66
2022/04/06 00:33:21;;;;;;;5.50;1.70;;;;;;;;;;5071147;28;20051;-66
2022/04/06 00:35:48;;;;;;;5.40;1.85;;;;;;;;;;5070630;28;20061;-66
2022/04/06 00:38:14;;;;;;;7.10;2.15;;;;;;;;;;5071449;28;20044;-66
2022/04/06 00:40:40;;;;;;;5.80;1.65;;;;;;;;;;5071080;28;20504;-66
2022/04/06 00:43:08;;;;;;;6.72;2.10;;;;;;;;;;5071008;28;20044;-66
2022/04/06 00:45:34;;;;;;;5.10;1.90;;;;;;;;;;5070695;28;20101;-66
2022/04/06 00:48:00;;;;;;;4.78;1.80;;;;;;;;;;5051971;28;20049;-66
2022/04/06 00:50:27;;;;;;;6.72;2.13;;;;;;;;;;5071055;28;20237;-66
2022/04/06 00:52:57;;;;;;;4.10;1.73;;;;;;;;;;5070726;28;20513;-66
2022/04/06 00:55:27;;;;;;;7.38;1.80;;;;;;;;;;5070618;28;20052;-65
2022/04/06 00:57:53;;;;;;;11.30;1.92;;;;;;;;;;5070975;28;20051;-66
2022/04/06 01:00:19;;;;;;;6.00;1.92;;;;;;;;;;5070751;28;20055;-65
2022/04/06 01:02:45;;;;;;;6.07;2.25;;;;;;;;;;5070257;28;20049;-65
2022/04/06 01:05:13;;;;;;;7.72;2.25;;;;;;;;;;5070551;28;20114;-65
2022/04/06 01:07:39;;;;;;;5.82;2.00;;;;;;;;;;5070780;28;20052;-65
2022/04/06 01:10:05;;;;;;;8.38;2.22;;;;;;;;;;5071371;28;20421;-65
2022/04/06 01:12:35;;;;;;;6.50;1.77;;;;;;;;;;5070415;28;20368;-65
2022/04/06 01:15:01;;;;;;;7.28;1.83;;;;;;;;;;5070666;28;20080;-66
2022/04/06 01:17:36;;;;;;;7.20;2.78;;;;;;;;;;5069674;28;20051;-66
2022/04/06 01:20:05;;;;;;;9.65;2.13;;;;;;;;;;5070422;28;20043;-66
2022/04/06 01:22:31;;;;;;;6.28;1.80;;;;;;;;;;5069959;28;20075;-66
2022/04/06 01:24:58;;;;;;;5.63;1.90;;;;;;;;;;5070404;28;20178;-66
2022/04/06 01:27:24;;;;;;;7.55;2.35;;;;;;;;;;5070273;28;20053;-66
2022/04/06 01:29:52;;;;;;;9.35;2.78;;;;;;;;;;5070176;28;20399;-66
2022/04/06 01:32:22;;;;;;;10.10;2.53;;;;;;;;;;5069556;28;20054;-65
2022/04/06 01:34:49;;;;;;;6.35;2.15;;;;;;;;;;5070028;28;20143;-65
2022/04/06 01:37:16;;;;;;;6.05;2.28;;;;;;;;;;5069836;28;20051;-66
2022/04/06 01:39:43;;;;;;;8.30;2.20;;;;;;;;;;5069807;28;20041;-66
2022/04/06 01:42:10;;;;;;;8.75;2.38;;;;;;;;;;5051697;28;20097;-66
2022/04/06 01:44:36;;;;;;;5.03;1.88;;;;;;;;;;5069673;28;20456;-66
2022/04/06 01:47:03;;;;;;;4.85;2.33;;;;;;;;;;5051486;28;20120;-66
2022/04/06 01:52:15;;;;;;;5.28;1.88;;;;;;;;;;5069680;28;20055;-66
2022/04/06 01:54:41;;;;;;;5.63;1.77;;;;;;;;;;5069396;28;20049;-66
2022/04/06 01:57:07;;;;;;;7.38;2.20;;;;;;;;;;5069263;28;20405;-66
2022/04/06 01:59:33;;;;;;;5.72;2.28;;;;;;;;;;5068769;28;20056;-66
2022/04/06 02:01:59;;;;;;;7.53;2.05;;;;;;;;;;5069699;28;20127;-66
2022/04/06 02:04:25;;;;;;;7.00;2.13;;;;;;;;;;5069476;28;20045;-66
2022/04/06 02:06:51;;;;;;;5.00;2.08;;;;;;;;;;5069222;28;20406;-66
2022/04/06 02:09:18;;;;;;;8.52;2.13;;;;;;;;;;5051156;28;20487;-66
2022/04/06 02:11:44;;;;;;;6.22;2.05;;;;;;;;;;5068821;28;20045;-66
2022/04/06 02:14:11;;;;;;;4.30;1.80;;;;;;;;;;5050874;28;20129;-65
2022/04/06 02:16:37;;;;;;;7.05;2.40;;;;;;;;;;5069003;28;20079;-65
2022/04/06 02:19:05;;;;;;;7.78;2.00;;;;;;;;;;5068669;28;20128;-66
2022/04/06 02:21:31;;;;;;;6.90;2.33;;;;;;;;;;5069020;28;20052;-66
2022/04/06 02:23:57;;;;;;;7.22;2.08;;;;;;;;;;5068951;28;20109;-66
2022/04/06 02:26:23;;;;;;;4.57;1.80;;;;;;;;;;5068951;28;20040;-65
2022/04/06 02:28:49;;;;;;;4.75;1.80;;;;;;;;;;5050811;28;20141;-66
2022/04/06 02:31:15;;;;;;;4.95;1.80;;;;;;;;;;5068749;28;20071;-66
2022/04/06 02:33:41;;;;;;;4.43;1.90;;;;;;;;;;5068543;28;20418;-65
2022/04/06 02:36:07;;;;;;;5.55;2.08;;;;;;;;;;5068720;28;20055;-65
2022/04/06 02:38:38;;;;;;;5.07;1.70;;;;;;;;;;5068271;28;20417;-66
2022/04/06 02:41:05;;;;;;;5.47;1.88;;;;;;;;;;5068221;28;20135;-66
2022/04/06 02:43:32;;;;;;;5.97;1.90;;;;;;;;;;5068540;28;20473;-66
2022/04/06 02:45:58;;;;;;;7.78;2.38;;;;;;;;;;5068484;28;20374;-65
2022/04/06 02:48:24;;;;;;;4.80;1.85;;;;;;;;;;5068543;28;20048;-66
2022/04/06 02:50:50;;;;;;;5.75;1.90;;;;;;;;;;5068398;28;20473;-66
2022/04/06 02:53:16;;;;;;;6.65;2.00;;;;;;;;;;5068763;28;20051;-66
2022/04/06 02:55:42;;;;;;;4.20;1.67;;;;;;;;;;5068779;28;20426;-66
2022/04/06 02:58:08;;;;;;;4.93;1.90;;;;;;;;;;5069215;28;20113;-66
2022/04/06 03:00:35;;;;;;;5.10;1.75;;;;;;;;;;5050976;28;20445;-66
2022/04/06 03:03:01;;;;;;;8.93;2.30;;;;;;;;;;5068312;28;20422;-66
2022/04/06 03:05:27;;;;;;;5.45;1.90;;;;;;;;;;5068464;28;20051;-67
2022/04/06 03:07:53;;;;;;;5.45;1.75;;;;;;;;;;5068583;28;20080;-66
2022/04/06 03:10:19;;;;;;;5.60;1.65;;;;;;;;;;5068305;28;20068;-67
2022/04/06 03:12:46;;;;;;;10.88;1.90;;;;;;;;;;5068202;28;20409;-65
2022/04/06 03:15:12;;;;;;;9.55;2.00;;;;;;;;;;5068471;28;20040;-65
2022/04/06 03:17:38;;;;;;;4.55;1.73;;;;;;;;;;5067140;28;20044;-66
2022/04/06 03:20:05;;;;;;;5.28;1.48;;;;;;;;;;5050637;28;20419;-65
2022/04/06 03:22:31;;;;;;;4.88;1.83;;;;;;;;;;5067940;28;20045;-65
2022/04/06 03:24:57;;;;;;;4.03;1.35;;;;;;;;;;5068084;28;20340;-65
2022/04/06 03:27:24;;;;;;;4.38;1.20;;;;;;;;;;5067974;28;20040;-66
2022/04/06 03:29:50;;;;;;;9.23;1.92;;;;;;;;;;5067321;28;20541;-66
2022/04/06 03:32:16;;;;;;;9.52;2.65;;;;;;;;;;5067855;28;20717;-66
2022/04/06 03:34:42;;;;;;;6.18;1.65;;;;;;;;;;5067662;28;20056;-65
2022/04/06 03:37:08;;;;;;;4.57;1.38;;;;;;;;;;5067991;28;20084;-66
2022/04/06 03:39:34;;;;;;;5.03;1.83;;;;;;;;;;5067567;28;20059;-64
2022/04/06 03:42:00;;;;;;;4.53;1.60;;;;;;;;;;5068193;28;20044;-65
2022/04/06 03:44:26;;;;;;;4.20;1.40;;;;;;;;;;5067405;28;20040;-65
2022/04/06 03:46:53;;;;;;;5.50;1.55;;;;;;;;;;5067641;28;20374;-66
2022/04/06 03:49:19;;;;;;;5.88;1.45;;;;;;;;;;5067920;28;20082;-66
2022/04/06 03:51:45;;;;;;;3.95;1.40;;;;;;;;;;5050008;28;20036;-66
2022/04/06 03:54:12;;;;;;;2.97;1.05;;;;;;;;;;5067916;28;20477;-66
2022/04/06 03:56:38;;;;;;;4.18;1.63;;;;;;;;;;5067659;28;20084;-66
2022/04/06 03:59:04;;;;;;;5.60;1.40;;;;;;;;;;5067575;28;20045;-66
2022/04/06 04:01:31;;;;;;;2.97;1.30;;;;;;;;;;5067475;28;20094;-66
2022/04/06 04:03:57;;;;;;;3.63;1.40;;;;;;;;;;5049895;28;20049;-66
2022/04/06 04:06:24;;;;;;;3.95;1.30;;;;;;;;;;5067641;28;20317;-66
2022/04/06 04:08:50;;;;;;;3.85;1.10;;;;;;;;;;5067646;28;20190;-66
2022/04/06 04:11:16;;;;;;;4.38;1.45;;;;;;;;;;5067198;28;20083;-65
2022/04/06 04:13:42;;;;;;;3.95;1.40;;;;;;;;;;5067517;28;20052;-66
2022/04/06 04:16:08;;;;;;;5.45;1.45;;;;;;;;;;5067539;28;20048;-66
2022/04/06 04:18:34;;;;;;;4.15;1.30;;;;;;;;;;5067784;28;20048;-66
2022/04/06 04:23:45;;;;;;;3.70;1.38;;;;;;;;;;5070786;28;20143;-65
2022/04/06 04:26:11;;;;;;;3.00;1.17;;;;;;;;;;5070925;28;20140;-65
2022/04/06 04:28:37;;;;;;;5.22;1.50;;;;;;;;;;5070815;28;20041;-66
2022/04/06 04:31:03;;;;;;;3.70;1.30;;;;;;;;;;5071105;28;20037;-66
2022/04/06 04:33:29;;;;;;;4.28;1.27;;;;;;;;;;5070639;28;20044;-66
2022/04/06 04:35:55;;;;;;;3.92;1.15;;;;;;;;;;5070763;28;20056;-66
2022/04/06 04:38:21;;;;;;;4.22;1.50;;;;;;;;;;5070793;28;20111;-66
2022/04/06 04:40:49;;;;;;;3.75;1.50;;;;;;;;;;5070647;28;20167;-66
2022/04/06 04:43:15;;;;;;;3.25;1.38;;;;;;;;;;5070971;28;20482;-66
2022/04/06 04:45:41;;;;;;;3.97;1.38;;;;;;;;;;5070564;28;20032;-66
2022/04/06 04:48:07;;;;;;;4.38;1.65;;;;;;;;;;5070336;28;20141;-66
2022/04/06 04:50:33;;;;;;;5.57;1.60;;;;;;;;;;5070604;28;20147;-65
2022/04/06 04:52:59;;;;;;;5.93;1.38;;;;;;;;;;5070775;28;20491;-66
2022/04/06 04:55:25;;;;;;;3.65;1.35;;;;;;;;;;5070115;28;20045;-66
2022/04/06 04:57:51;;;;;;;4.30;1.38;;;;;;;;;;5070480;28;20051;-66
2022/04/06 05:00:17;;;;;;;4.28;1.30;;;;;;;;;;5070185;28;20136;-66
2022/04/06 05:02:43;;;;;;;5.03;1.50;;;;;;;;;;5070246;28;20063;-66
2022/04/06 05:05:10;;;;;;;4.50;1.40;;;;;;;;;;5052825;28;20052;-66
2022/04/06 05:07:39;;;;;;;5.65;1.50;;;;;;;;;;5070019;28;20391;-65
2022/04/06 05:10:06;;;;;;;5.10;1.50;;;;;;;;;;5070653;28;20040;-65
2022/04/06 05:12:32;;;;;;;4.95;1.60;;;;;;;;;;5070433;28;20048;-65
2022/04/06 05:15:01;;;;;;;3.45;1.40;;;;;;;;;;5070397;28;20482;-66
2022/04/06 05:17:27;;;;;;;4.40;1.33;;;;;;;;;;5070119;28;20048;-65
2022/04/06 05:19:54;;;;;;;4.45;1.60;;;;;;;;;;5070242;28;20044;-65
2022/04/06 05:22:20;;;;;;;4.85;1.52;;;;;;;;;;5069675;28;20355;-65
2022/04/06 05:24:46;;;;;;;4.97;1.20;;;;;;;;;;5069840;28;20044;-65
2022/04/06 05:27:12;;;;;;;4.53;1.75;;;;;;;;;;5052188;28;20446;-65
2022/04/06 05:29:38;;;;;;;3.95;1.33;;;;;;;;;;5069913;28;20049;-64
2022/04/06 05:32:04;;;;;;;5.65;1.27;;;;;;;;;;5069285;28;20930;-64
2022/04/06 05:34:30;;;;;;;6.97;1.50;;;;;;;;;;5069239;28;20357;-65
2022/04/06 05:36:57;;;;;;;7.55;1.40;;;;;;;;;;5070080;28;20410;-64
2022/04/06 05:39:23;;;;;;;10.20;1.73;;;;;;;;;;5069490;28;20137;-65
2022/04/06 05:41:49;;;;;;;6.68;3.03;;;;;;;;;;5069782;28;20040;-65
2022/04/06 05:44:16;;;;;;;5.68;1.42;;;;;;;;;;5069995;28;20048;-65
2022/04/06 05:46:42;;;;;;;4.55;1.50;;;;;;;;;;5069827;28;20045;-65
2022/04/06 05:49:08;;;;;;;10.23;1.83;;;;;;;;;;5069986;28;20071;-65
2022/04/06 05:51:34;;;;;;;6.50;1.50;;;;;;;;;;5069606;28;20044;-65
2022/04/06 05:54:02;;;;;;;7.03;1.55;;;;;;;;;;5051607;28;20518;-65
2022/04/06 05:56:28;;;;;;;5.82;1.52;;;;;;;;;;5069325;28;20063;-65
2022/04/06 05:58:54;;;;;;;6.22;1.45;;;;;;;;;;5069276;28;20082;-65
2022/04/06 06:01:20;;;;;;;8.88;1.52;;;;;;;;;;5051272;28;20055;-65
2022/04/06 06:03:46;;;;;;;5.30;1.73;;;;;;;;;;5068586;28;20402;-65
2022/04/06 06:06:12;;;;;;;8.57;2.15;;;;;;;;;;5069010;28;20451;-64
2022/04/06 06:08:38;;;;;;;5.15;1.48;;;;;;;;;;5068550;28;20482;-65
2022/04/06 06:11:05;;;;;;;5.97;1.50;;;;;;;;;;5069167;28;20076;-65
2022/04/06 06:13:31;;;;;;;6.50;1.55;;;;;;;;;;5068262;28;20044;-65
2022/04/06 06:15:57;;;;;;;6.95;1.52;;;;;;;;;;5068584;28;20140;-66
2022/04/06 06:18:27;;;;;;;4.40;1.48;;;;;;;;;;5068522;28;20092;-65
2022/04/06 06:20:53;;;;;;;5.45;1.35;;;;;;;;;;5069153;28;20083;-65
2022/04/06 06:23:19;;;;;;;5.18;1.23;;;;;;;;;;5051563;28;20044;-65
2022/04/06 06:25:45;;;;;;;5.32;1.48;;;;;;;;;;5068256;28;20512;-65
2022/04/06 06:28:11;;;;;;;5.53;1.52;;;;;;;;;;5069088;28;20048;-65
2022/04/06 06:30:37;;;;;;;5.63;1.83;;;;;;;;;;5069039;28;20053;-65
2022/04/06 06:33:03;;;;;;;4.55;1.60;;;;;;;;;;5068867;28;20055;-65
2022/04/06 06:35:29;;;;;;;8.00;2.00;;;;;;;;;;5068898;28;20453;-65
2022/04/06 06:37:56;;;;;;;5.03;1.65;;;;;;;;;;5068755;28;20363;-65
2022/04/06 06:40:24;;;;;;;4.22;1.50;;;;;;;;;;5050813;28;20048;-65
2022/04/06 06:42:50;;;;;;;6.68;1.50;;;;;;;;;;5050913;28;20185;-66
2022/04/06 06:45:16;;;;;;;3.25;1.45;;;;;;;;;;5068453;28;20048;-67
2022/04/06 06:47:43;;;;;;;4.80;1.60;;;;;;;;;;5067465;28;20053;-67
2022/04/06 06:50:10;;;;;;;4.47;1.30;;;;;;;;;;5068899;28;20067;-67
2022/04/06 06:52:36;;;;;;;5.63;1.42;;;;;;;;;;5068820;28;20044;-67
2022/04/06 06:55:03;;;;;;;5.40;1.45;;;;;;;;;;5068630;28;20044;-67
2022/04/06 06:57:29;;;;;;;3.30;1.15;;;;;;;;;;5068400;28;20056;-67
2022/04/06 06:59:55;;;;;;;5.80;1.55;;;;;;;;;;5068964;28;20051;-67
2022/04/06 07:02:21;;;;;;;4.40;1.48;;;;;;;;;;5068620;28;20044;-67
2022/04/06 07:04:48;;;;;;;3.35;1.10;;;;;;;;;;5068838;28;20457;-67
2022/04/06 07:07:13;;;;;;;4.45;1.10;;;;;;;;;;5067763;28;20036;-66
2022/04/06 07:09:39;;;;;;;3.95;1.20;;;;;;;;;;5068135;28;20098;-66
2022/04/06 07:12:06;;;;;;;4.75;1.58;;;;;;;;;;5068472;28;20048;-67
2022/04/06 07:14:33;;;;;;;3.47;1.20;;;;;;;;;;5068676;28;20048;-66
2022/04/06 07:16:59;;;;;;;5.32;1.48;;;;;;;;;;5068243;28;20033;-67
2022/04/06 07:19:26;;;;;;;5.70;1.20;;;;;;;;;;5068140;28;20049;-66
2022/04/06 07:21:52;;;;;;;4.80;1.20;;;;;;;;;;5068402;28;20213;-66
2022/04/06 07:24:18;;;;;;;4.85;1.27;;;;;;;;;;5068553;28;20559;-66
2022/04/06 07:26:44;;;;;;;4.28;1.38;;;;;;;;;;5068338;28;20044;-66
2022/04/06 07:29:11;;;;;;;5.28;1.60;;;;;;;;;;5068217;28;20056;-66
2022/04/06 07:31:40;;;;;;;3.63;1.27;;;;;;;;;;5068534;28;20055;-64
2022/04/06 07:34:06;;;;;;;7.80;1.33;;;;;;;;;;5068342;28;20124;-65
2022/04/06 07:36:33;;;;;;;6.70;1.48;;;;;;;;;;5068084;28;20055;-65
2022/04/06 07:39:03;;;;;;;4.55;1.70;;;;;;;;;;5068507;28;20048;-65
2022/04/06 07:41:29;;;;;;;4.78;1.20;;;;;;;;;;5068487;28;20521;-65
2022/04/06 07:43:55;;;;;;;8.48;1.48;;;;;;;;;;5068527;28;20101;-66
2022/04/06 07:46:21;;;;;;;6.32;1.60;;;;;;;;;;5068262;28;20064;-65
2022/04/06 07:48:47;;;;;;;5.45;1.30;;;;;;;;;;5067536;28;20138;-66
2022/04/06 07:51:14;;;;;;;5.32;1.77;;;;;;;;;;5068328;28;20094;-65
2022/04/06 07:53:40;;;;;;;4.47;1.30;;;;;;;;;;5050264;28;20564;-66
2022/04/06 07:56:08;;;;;;;4.82;1.30;;;;;;;;;;5068716;28;20052;-66
2022/04/06 07:58:35;;;;;;;4.60;1.23;;;;;;;;;;5071622;28;20125;-66
2022/04/06 08:01:02;;;;;;;3.95;1.48;;;;;;;;;;5072111;28;20048;-66
2022/04/06 08:03:29;;;;;;;4.28;1.20;;;;;;;;;;5053738;28;20098;-65
2022/04/06 08:05:56;;;;;;;4.35;1.45;;;;;;;;;;5053623;28;20050;-66
2022/04/06 08:08:22;;;;;;;4.78;1.20;;;;;;;;;;5053563;28;20182;-66
2022/04/06 08:10:48;;;;;;;5.88;1.30;;;;;;;;;;5071423;28;20053;-66
2022/04/06 08:13:14;;;;;;;7.47;1.40;;;;;;;;;;5071713;28;20040;-67
2022/04/06 08:15:40;;;;;;;4.40;1.15;;;;;;;;;;5071643;28;20348;-67
2022/04/06 08:18:06;;;;;;;5.95;1.17;;;;;;;;;;5071792;28;20414;-67
2022/04/06 08:20:33;;;;;;;5.15;1.70;;;;;;;;;;5071691;28;20087;-66
2022/04/06 08:23:24;;;;;;;4.95;1.30;;;;;;;;;;5071316;28;20563;-65
2022/04/06 08:26:17;;;;;;;3.65;1.20;;;;;;;;;;5070631;28;20052;-65
2022/04/06 08:29:02;;;;;;;3.53;1.05;;;;;;;;;;5071466;28;20410;-65
2022/04/06 08:31:28;;;;;;;3.58;1.17;;;;;;;;;;5071583;28;20419;-65
2022/04/06 08:33:54;;;;;;;3.33;1.00;;;;;;;;;;5044539;28;20124;-65
2022/04/06 08:36:23;;;;;;;4.78;1.38;;;;;;;;;;5048173;28;20133;-65
2022/04/06 08:38:55;;;;;;;5.68;1.25;;;;;;;;;;5069806;28;20117;-66
2022/04/06 08:41:26;;;;;;;3.83;1.08;;;;;;;;;;5068640;28;20052;-66
2022/04/06 08:43:54;;;;;;;4.93;1.00;;;;;;;;;;5067905;28;20041;-66
2022/04/06 08:46:23;;;;;;;3.25;1.00;;;;;;;;;;5068116;28;20048;-65
2022/04/06 08:48:51;;;;;;;3.80;0.90;;;;;;;;;;5068739;28;20052;-65
2022/04/06 08:51:18;;;;;;;3.65;1.10;;;;;;;;;;5068894;28;20044;-65
2022/04/06 08:53:46;;;;;;;5.00;1.77;;;;;;;;;;5069330;28;20047;-65
2022/04/06 08:56:12;;;;;;;6.95;2.00;;;;;;;;;;5068875;28;20041;-65
2022/04/06 08:58:39;;;;;;;7.00;2.10;;;;;;;;;;5068889;28;20039;-66
2022/04/06 09:01:05;;;;;;;7.60;2.88;;;;;;;;;;5069082;28;20383;-64
2022/04/06 09:03:31;;;;;;;10.57;4.07;;;;;;;;;;5068228;28;20044;-66
2022/04/06 09:06:01;;;;;;;17.90;6.55;;;;;;;;;;5061065;28;20052;-66
2022/04/06 09:08:34;;;;;;;15.27;7.15;;;;;;;;;;5067521;28;20048;-67
2022/04/06 09:11:06;;;;;;;16.80;8.55;;;;;;;;;;5067688;28;20414;-68
2022/04/06 09:13:32;;;;;;;19.45;10.25;;;;;;;;;;5067711;28;20072;-66
2022/04/06 09:16:01;;;;;;;17.20;10.82;;;;;;;;;;5067471;28;20040;-66
2022/04/06 09:18:34;;;;;;;19.63;11.52;;;;;;;;;;5066104;28;20041;-66
2022/04/06 09:21:01;;;;;;;20.05;11.85;;;;;;;;;;5069743;28;20037;-66
2022/04/06 09:23:30;;;;;;;23.33;12.80;;;;;;;;;;5065306;28;20049;-66
2022/04/06 09:26:01;;;;;;;19.42;12.82;;;;;;;;;;5068169;28;20406;-68
2022/04/06 09:28:27;;;;;;;26.27;16.17;;;;;;;;;;5064377;28;20078;-67
2022/04/06 09:30:53;;;;;;;24.77;16.75;;;;;;;;;;5069897;28;20045;-66
2022/04/06 09:33:21;;;;;;;28.02;18.25;;;;;;;;;;5069959;28;20152;-67
2022/04/06 09:35:48;;;;;;;30.83;19.95;;;;;;;;;;5069488;28;20052;-68
2022/04/06 09:38:14;;;;;;;32.00;21.75;;;;;;;;;;5068187;28;20048;-66
2022/04/06 09:40:40;;;;;;;36.63;23.95;;;;;;;;;;5069670;28;20091;-66
2022/04/06 09:43:07;;;;;;;40.28;25.55;;;;;;;;;;5068498;28;20554;-68
2022/04/06 09:48:18;;;;;;;41.00;27.65;;;;;;;;;;5069232;28;20113;-66
2022/04/06 09:50:55;;;;;;;44.53;27.13;;;;;;;;;;5069692;28;20458;-67
2022/04/06 09:53:25;;;;;;;41.38;25.33;;;;;;;;;;5068328;28;20421;-66
2022/04/06 09:55:52;;;;;;;43.25;28.45;;;;;;;;;;5069181;28;20148;-68
2022/04/06 09:58:18;;;;;;;43.72;26.83;;;;;;;;;;5069774;28;20045;-67
2022/04/06 10:00:44;;;;;;;44.28;28.42;;;;;;;;;;5069866;28;20457;-67
2022/04/06 10:03:11;;;;;;;41.50;27.35;;;;;;;;;;5050628;28;20048;-67
2022/04/06 10:05:38;;;;;;;37.53;26.33;;;;;;;;;;5068492;28;20657;-66
2022/04/06 10:08:05;;;;;;;42.72;27.98;;;;;;;;;;5067669;28;20131;-66
2022/04/06 10:10:32;;;;;;;39.03;27.65;;;;;;;;;;5069356;28;20040;-66
2022/04/06 10:12:59;;;;;;;43.13;27.90;;;;;;;;;;5069157;28;20063;-66
2022/04/06 10:15:25;;;;;;;38.08;25.40;;;;;;;;;;5068577;28;20514;-67
2022/04/06 10:17:52;;;;;;;46.72;28.33;;;;;;;;;;5069148;28;20053;-66
2022/04/06 10:20:23;;;;;;;38.28;24.92;;;;;;;;;;5066817;28;20041;-67
2022/04/06 10:22:57;;;;;;;37.58;25.30;;;;;;;;;;5067637;28;20048;-67
2022/04/06 10:25:29;;;;;;;41.92;26.40;;;;;;;;;;5068858;28;20124;-67
2022/04/06 10:27:56;;;;;;;35.10;23.25;;;;;;;;;;5067941;28;20051;-68
2022/04/06 10:30:23;;;;;;;34.15;21.08;;;;;;;;;;5068725;28;20183;-66
2022/04/06 10:32:51;;;;;;;33.60;22.20;;;;;;;;;;5068867;28;20415;-66
2022/04/06 10:35:18;;;;;;;35.78;22.50;;;;;;;;;;5068517;28;20209;-69
2022/04/06 10:37:50;;;;;;;36.15;21.55;;;;;;;;;;5068768;28;20044;-68
2022/04/06 10:40:17;;;;;;;31.40;20.27;;;;;;;;;;5068833;28;20093;-68
2022/04/06 10:42:45;;;;;;;31.60;20.77;;;;;;;;;;5067016;28;20483;-66
2022/04/06 10:45:29;;;;;;;30.50;20.45;;;;;;;;;;5068822;28;20056;-67
2022/04/06 10:48:12;;;;;;;30.27;19.23;;;;;;;;;;5068623;28;20052;-67
2022/04/06 10:50:38;;;;;;;25.55;17.60;;;;;;;;;;5068251;28;20403;-66
2022/04/06 10:53:22;;;;;;;26.98;17.05;;;;;;;;;;5067609;28;20040;-66
2022/04/06 10:56:06;;;;;;;27.00;17.95;;;;;;;;;;5067404;28;20043;-66
2022/04/06 10:58:50;;;;;;;26.35;16.20;;;;;;;;;;5068387;28;20058;-67
2022/04/06 11:01:18;;;;;;;23.77;16.52;;;;;;;;;;5068568;28;20128;-65
2022/04/06 11:03:58;;;;;;;27.05;14.88;;;;;;;;;;5068583;28;20044;-66
2022/04/06 11:06:49;;;;;;;22.38;14.65;;;;;;;;;;5068469;28;20048;-66
2022/04/06 11:12:17;;;;;;;20.13;12.73;;;;;;;;;;5061929;28;20052;-68
2022/04/06 11:14:44;;;;;;;23.38;13.98;;;;;;;;;;5064073;28;20044;-66
2022/04/06 11:17:30;;;;;;;21.35;12.52;;;;;;;;;;5068651;28;20049;-66
2022/04/06 11:19:57;;;;;;;21.23;12.88;;;;;;;;;;5068781;28;20056;-66
2022/04/06 11:22:23;;;;;;;20.60;12.10;;;;;;;;;;5068423;28;20036;-65
2022/04/06 11:24:49;;;;;;;18.95;11.70;;;;;;;;;;5068682;28;20216;-66
2022/04/06 11:27:27;;;;;;;18.73;11.00;;;;;;;;;;5067645;28;20113;-67
2022/04/06 11:30:14;;;;;;;18.27;11.00;;;;;;;;;;5049894;28;20052;-65
2022/04/06 11:32:40;;;;;;;20.23;9.55;;;;;;;;;;5057728;28;20048;-67
2022/04/06 11:35:07;;;;;;;18.35;10.73;;;;;;;;;;5072730;28;20057;-67
2022/04/06 11:37:41;;;;;;;17.98;10.32;;;;;;;;;;5072197;28;20099;-67
2022/04/06 11:40:08;;;;;;;17.60;9.57;;;;;;;;;;5072582;28;20478;-67
2022/04/06 11:42:34;;;;;;;19.38;9.85;;;;;;;;;;5072094;28;20044;-67
2022/04/06 11:45:00;;;;;;;16.58;8.35;;;;;;;;;;5071705;28;20456;-66
2022/04/06 11:47:33;;;;;;;14.95;8.60;;;;;;;;;;5070640;28;20049;-66
2022/04/06 11:50:00;;;;;;;15.18;8.50;;;;;;;;;;5071704;28;20044;-67
2022/04/06 11:52:26;;;;;;;14.95;7.82;;;;;;;;;;5072282;28;20456;-67
2022/04/06 11:54:53;;;;;;;12.02;7.45;;;;;;;;;;5071722;28;20036;-66
2022/04/06 11:57:19;;;;;;;16.60;8.68;;;;;;;;;;5071895;28;20411;-67
2022/04/06 11:59:57;;;;;;;15.25;7.72;;;;;;;;;;5071917;28;20049;-66
2022/04/06 12:02:23;;;;;;;13.93;7.60;;;;;;;;;;5072129;28;20044;-67
2022/04/06 12:05:03;;;;;;;13.38;7.38;;;;;;;;;;5071310;28;20562;-69
2022/04/06 12:07:29;;;;;;;12.35;7.07;;;;;;;;;;5071411;28;20052;-68
2022/04/06 12:09:56;;;;;;;11.40;7.28;;;;;;;;;;5070385;28;20084;-67
2022/04/06 12:12:23;;;;;;;12.85;6.97;;;;;;;;;;5058893;28;20040;-67
2022/04/06 12:14:50;;;;;;;14.95;7.07;;;;;;;;;;5051807;28;20056;-68
2022/04/06 12:17:17;;;;;;;13.80;6.65;;;;;;;;;;5070172;28;20507;-67
2022/04/06 12:19:43;;;;;;;13.05;6.32;;;;;;;;;;5071414;28;20051;-69
2022/04/06 12:22:13;;;;;;;14.50;6.22;;;;;;;;;;5071193;28;20119;-67
2022/04/06 12:24:39;;;;;;;13.48;7.00;;;;;;;;;;5070304;28;20487;-66
2022/04/06 12:27:06;;;;;;;13.52;6.35;;;;;;;;;;5071698;28;20051;-66
2022/04/06 12:29:32;;;;;;;13.85;6.80;;;;;;;;;;5071465;28;20048;-67
2022/04/06 12:31:59;;;;;;;10.70;5.68;;;;;;;;;;5070528;28;20051;-66
2022/04/06 12:34:32;;;;;;;21.40;6.50;;;;;;;;;;5052390;28;20064;-65
2022/04/06 12:36:59;;;;;;;15.70;5.72;;;;;;;;;;5070459;28;20060;-65
2022/04/06 12:39:25;;;;;;;17.17;5.65;;;;;;;;;;5071266;28;20128;-66
2022/04/06 12:41:55;;;;;;;14.55;5.60;;;;;;;;;;5070426;28;20119;-65
2022/04/06 12:44:22;;;;;;;11.35;5.88;;;;;;;;;;5069403;28;20110;-66
2022/04/06 12:46:49;;;;;;;12.43;6.68;;;;;;;;;;5070962;28;20093;-65
2022/04/06 12:49:21;;;;;;;12.70;4.95;;;;;;;;;;5070712;28;20045;-65
2022/04/06 12:51:47;;;;;;;12.10;5.05;;;;;;;;;;5070228;28;20041;-65
2022/04/06 12:54:13;;;;;;;12.02;4.60;;;;;;;;;;5070782;28;20044;-65
2022/04/06 12:56:40;;;;;;;15.27;5.28;;;;;;;;;;5069964;28;20048;-65
2022/04/06 12:59:07;;;;;;;12.98;5.70;;;;;;;;;;5070374;28;20049;-65
2022/04/06 13:01:33;;;;;;;10.88;4.38;;;;;;;;;;5070642;28;20095;-65
2022/04/06 13:04:00;;;;;;;10.93;4.18;;;;;;;;;;5070683;28;20075;-66
2022/04/06 13:06:26;;;;;;;10.45;3.92;;;;;;;;;;5070218;28;20055;-65
2022/04/06 13:08:52;;;;;;;10.02;4.63;;;;;;;;;;5069732;28;20044;-66
2022/04/06 13:11:18;;;;;;;10.15;4.28;;;;;;;;;;5069125;28;20060;-67
2022/04/06 13:13:44;;;;;;;9.43;4.30;;;;;;;;;;5070368;28;20067;-66
2022/04/06 13:16:10;;;;;;;8.80;4.07;;;;;;;;;;5069959;28;20055;-66
2022/04/06 13:18:36;;;;;;;9.80;4.30;;;;;;;;;;5070897;28;20356;-66
2022/04/06 13:21:02;;;;;;;9.50;3.60;;;;;;;;;;5070338;28;20417;-65
2022/04/06 13:23:29;;;;;;;14.68;4.50;;;;;;;;;;5069620;28;20048;-65
2022/04/06 13:25:55;;;;;;;8.27;3.85;;;;;;;;;;5052536;28;20140;-65
2022/04/06 13:28:21;;;;;;;9.07;3.90;;;;;;;;;;5068954;28;20049;-65
2022/04/06 13:30:47;;;;;;;10.13;3.60;;;;;;;;;;5070179;28;20037;-65
2022/04/06 13:33:13;;;;;;;8.15;3.53;;;;;;;;;;5052000;28;20518;-65
2022/04/06 13:35:39;;;;;;;9.63;3.60;;;;;;;;;;5070110;28;20140;-67
2022/04/06 13:38:06;;;;;;;10.15;3.53;;;;;;;;;;5069922;28;20056;-66
2022/04/06 13:40:33;;;;;;;10.75;3.58;;;;;;;;;;5069925;28;20597;-67
2022/04/06 13:42:59;;;;;;;10.82;3.40;;;;;;;;;;5070323;28;20044;-67
2022/04/06 13:45:25;;;;;;;10.77;3.20;;;;;;;;;;5070072;28;20044;-67
2022/04/06 13:47:51;;;;;;;8.63;3.03;;;;;;;;;;5069449;28;20054;-67
2022/04/06 13:50:19;;;;;;;9.45;2.65;;;;;;;;;;5069877;28;20168;-67
2022/04/06 13:52:45;;;;;;;9.60;3.20;;;;;;;;;;5069264;28;20114;-67
2022/04/06 13:55:11;;;;;;;9.27;3.38;;;;;;;;;;5068488;28;20041;-67
2022/04/06 13:57:37;;;;;;;9.00;2.70;;;;;;;;;;5068204;28;20131;-67
2022/04/06 14:00:04;;;;;;;7.85;3.13;;;;;;;;;;5065772;28;20143;-67
2022/04/06 14:02:30;;;;;;;9.90;2.80;;;;;;;;;;5067460;28;20037;-67
2022/04/06 14:04:58;;;;;;;8.77;2.83;;;;;;;;;;5068038;28;20044;-67
2022/04/06 14:07:24;;;;;;;8.55;3.15;;;;;;;;;;5055697;28;20435;-67
2022/04/06 14:09:50;;;;;;;10.27;4.20;;;;;;;;;;5067562;28;20423;-67
2022/04/06 14:12:17;;;;;;;10.82;3.10;;;;;;;;;;5067620;28;20075;-67
2022/04/06 14:14:43;;;;;;;8.88;2.90;;;;;;;;;;5067306;28;20182;-67
2022/04/06 14:17:11;;;;;;;7.25;2.92;;;;;;;;;;5067610;28;20040;-67
2022/04/06 14:19:37;;;;;;;11.60;3.13;;;;;;;;;;5065971;28;20036;-67
2022/04/06 14:22:03;;;;;;;8.23;2.42;;;;;;;;;;5067845;28;20317;-67
2022/04/06 14:24:29;;;;;;;6.90;2.80;;;;;;;;;;5067660;28;20115;-67
2022/04/06 14:26:56;;;;;;;7.85;2.80;;;;;;;;;;5067427;28;20344;-66
2022/04/06 14:29:22;;;;;;;8.52;2.80;;;;;;;;;;5064940;28;20047;-66
2022/04/06 14:31:48;;;;;;;10.07;3.08;;;;;;;;;;5065292;28;20045;-67
2022/04/06 14:34:14;;;;;;;8.30;2.40;;;;;;;;;;5064721;28;20418;-66
2022/04/06 14:36:41;;;;;;;6.00;2.08;;;;;;;;;;5067473;28;20516;-67
2022/04/06 14:39:07;;;;;;;7.05;2.40;;;;;;;;;;5054917;28;20052;-66
2022/04/06 14:41:34;;;;;;;5.65;2.03;;;;;;;;;;5066697;28;20036;-66
2022/04/06 14:44:00;;;;;;;5.90;2.38;;;;;;;;;;5057777;28;20561;-67
2022/04/06 14:46:26;;;;;;;5.95;2.47;;;;;;;;;;5064921;28;20044;-66
2022/04/06 14:48:52;;;;;;;6.88;2.42;;;;;;;;;;5063512;28;20040;-67